Terminal Aerodrome Forecast
Issued by NWS

Home | Current Version | Previous Version | Text Only | Print | Product List | Glossary On
Versions: 1 2 3 4 5 6 7 8 9 10 11 12 13 14 15 16 17 18 19
328
FTUS43 KDVN 181720
TAFBRL
TAF
KBRL 181720Z 1818/1918 34005KT P6SM SKC
     FM191400 08003KT P6SM SKC=

USA.gov is the U.S. government's official web portal to all federal, state and local government web resources and services.